Lisbon, NY

12:14 PM EST on November 28, 2014 (GMT -0500)
Wheeler-Sack Army Air Field | Change Station
CLOSE
Current Station
Airport
Location: Fort Drum,
Elevation: 679 ft
Nearby Weather Stations

Elev 679 ft 44.06 °N, 75.72 °W | Updated 16 minutes ago

Overcast
Overcast
24 °F
Feels Like 17 °F
N
6
Wind Variable Wind from WNW

Today
High -- | Low -- °F
--% Chance of Precip.
Yesterday
High -- | Low -- °F
Precip. -- in
7:14 AM 4:23 PM
Waxing Crescent, 42% visible
Pressure 30.17 in
Visibility 10.0 miles
Clouds Overcast 2800 ft
Windchill 17 °F
Dew Point 16 °F
Humidity 72%
Rainfall 0.00 in
Snow Depth Not available.
UV 1 out of 12
Pollen .10 out of 12
Air Quality Not available.
Flu Activity Not available.
METAR KGTB 281658Z AUTO 29005KT 10SM OVC028 M04/M09 A3013 RMK AO2 UPB1621E1636 OVC V BKN CIG 017 RWY03 SLP214 P0000 T10441088

More Conditions Fewer Conditions

Pressure 30.17 in
Visibility 10.0 miles
Clouds Overcast 2800 ft
Windchill 17 °F
Dew Point 16 °F
Humidity 72%
Rainfall 0.00 in
Snow Depth Not available.
UV 1 out of 12
Pollen .10 out of 12
Air Quality Not available.
Flu Activity Not available.
METAR KGTB 281658Z AUTO 29005KT 10SM OVC028 M04/M09 A3013 RMK AO2 UPB1621E1636 OVC V BKN CIG 017 RWY03 SLP214 P0000 T10441088

More Conditions Fewer Conditions

10-Day Weather Forecast

Almanac

Astronomy

Nov. 28, 2014 Rise Set
Actual Time
Civil Twilight
Nautical Twilight
Astronomical Twilight
Moon
Length of Visible Light
Length of Day
Tomorrow will be .
, % of the Moon is Illuminated

Today's Extremes

State Highs State Lows

Community

WunderPhotos

Upload Photos

1,774,239 photos uploaded!

WunderBlogs® & News

Nearby

Air Quality

  Air Quality AQ Index Pollutant
Not available.

Snow Depth

Station Depth Elevation

Earthquake Activity

City Distance Mag. Time & Date
Minimum magnitude displayed is 2.5.

Coastal Water Temperatures

Place Temperature

Nearby Weather Stations